createdAt,value
2022-10-17T00:02:05.899Z,10.70
2022-10-17T00:04:32.198Z,8.40
2022-10-17T00:06:58.539Z,8.65
2022-10-17T00:09:24.882Z,10.48
2022-10-17T00:11:51.219Z,10.90
2022-10-17T00:14:17.598Z,10.40
2022-10-17T00:16:44.003Z,11.00
2022-10-17T00:19:10.323Z,9.82
2022-10-17T00:21:36.677Z,7.82
2022-10-17T00:24:03.200Z,12.65
2022-10-17T00:26:29.552Z,10.48
2022-10-17T00:28:56.258Z,11.50
2022-10-17T00:31:24.001Z,13.15
2022-10-17T00:33:51.159Z,10.50
2022-10-17T00:36:21.334Z,10.35
2022-10-17T00:38:51.918Z,8.35
2022-10-17T00:41:21.059Z,14.15
2022-10-17T00:44:01.553Z,7.28
2022-10-17T00:46:38.792Z,11.05
2022-10-17T00:49:09.313Z,11.95
2022-10-17T00:51:41.738Z,8.73
2022-10-17T00:54:09.519Z,12.23
2022-10-17T00:56:35.978Z,10.80
2022-10-17T00:59:02.792Z,12.15
2022-10-17T01:01:29.386Z,11.23
2022-10-17T01:03:55.752Z,10.68
2022-10-17T01:06:22.074Z,8.82
2022-10-17T01:08:48.563Z,10.10
2022-10-17T01:11:25.092Z,12.52
2022-10-17T01:13:58.321Z,14.25
2022-10-17T01:16:39.592Z,15.43
2022-10-17T01:19:08.766Z,10.88
2022-10-17T01:21:56.956Z,9.82
2022-10-17T01:24:37.489Z,9.07
2022-10-17T01:27:34.366Z,11.88
2022-10-17T01:30:16.590Z,8.50
2022-10-17T01:33:12.502Z,7.13
2022-10-17T01:36:04.810Z,10.82
2022-10-17T01:38:43.450Z,9.80
2022-10-17T01:41:32.509Z,9.63
2022-10-17T01:44:14.071Z,13.90
2022-10-17T01:46:45.303Z,12.88
2022-10-17T01:49:16.129Z,12.07
2022-10-17T01:51:51.023Z,8.48
2022-10-17T01:57:08.298Z,7.45
2022-10-17T01:59:45.986Z,6.43
2022-10-17T02:02:15.200Z,8.98
2022-10-17T02:04:42.471Z,10.05
2022-10-17T02:07:10.406Z,7.43
2022-10-17T02:09:37.123Z,12.13
2022-10-17T02:12:24.754Z,13.13
2022-10-17T02:15:29.336Z,12.10
2022-10-17T02:18:17.925Z,11.43
2022-10-17T02:20:53.311Z,10.23
2022-10-17T02:23:38.305Z,10.45
2022-10-17T02:26:30.379Z,11.52
2022-10-17T02:29:19.221Z,8.43
2022-10-17T02:31:49.873Z,7.50
2022-10-17T02:34:27.729Z,9.55
2022-10-17T02:36:58.243Z,16.38
2022-10-17T02:39:27.300Z,9.93
2022-10-17T02:41:57.291Z,10.20
2022-10-17T02:44:25.042Z,7.75
2022-10-17T02:47:03.086Z,8.38
2022-10-17T02:49:34.934Z,10.68
2022-10-17T02:52:14.161Z,13.82
2022-10-17T02:54:48.666Z,15.23
2022-10-17T02:57:36.793Z,10.63
2022-10-17T03:00:06.459Z,12.50
2022-10-17T03:02:45.258Z,11.23
2022-10-17T03:05:14.447Z,10.45
2022-10-17T03:07:40.758Z,14.32
2022-10-17T03:10:07.327Z,11.00
2022-10-17T03:12:33.659Z,10.65
2022-10-17T03:14:59.994Z,9.82
2022-10-17T03:17:26.346Z,10.85
2022-10-17T03:19:52.672Z,11.63
2022-10-17T03:22:18.995Z,12.25
2022-10-17T03:24:45.293Z,13.30
2022-10-17T03:27:11.873Z,11.20
2022-10-17T03:29:38.195Z,10.68
2022-10-17T03:32:04.683Z,15.40
2022-10-17T03:34:31.018Z,11.63
2022-10-17T03:36:57.348Z,14.25
2022-10-17T03:39:23.782Z,13.18
2022-10-17T03:41:50.111Z,12.20
2022-10-17T03:44:16.393Z,14.48
2022-10-17T03:46:42.752Z,11.88
2022-10-17T03:49:09.936Z,12.15
2022-10-17T03:51:36.625Z,12.75
2022-10-17T03:54:02.976Z,10.50
2022-10-17T03:56:29.339Z,13.23
2022-10-17T03:58:56.507Z,11.35
2022-10-17T04:01:23.378Z,12.48
2022-10-17T04:03:54.755Z,12.57
2022-10-17T04:06:22.205Z,13.30
2022-10-17T04:08:49.915Z,13.00
2022-10-17T04:11:21.439Z,13.68
2022-10-17T04:13:48.264Z,13.35
2022-10-17T04:16:16.930Z,14.40
2022-10-17T04:18:44.229Z,11.98
2022-10-17T04:21:11.625Z,12.95
2022-10-17T04:23:38.811Z,15.63
2022-10-17T04:26:06.004Z,14.02
2022-10-17T04:28:33.206Z,14.82
2022-10-17T04:31:08.205Z,14.43
2022-10-17T04:33:34.710Z,17.20
2022-10-17T04:36:03.669Z,17.73
2022-10-17T04:38:30.558Z,16.80
2022-10-17T04:41:00.961Z,14.30
2022-10-17T04:43:27.250Z,15.63
2022-10-17T04:45:53.592Z,16.80
2022-10-17T04:48:20.135Z,13.95
2022-10-17T04:50:56.372Z,12.80
2022-10-17T04:53:24.007Z,15.90
2022-10-17T04:55:50.849Z,12.68
2022-10-17T04:58:17.415Z,15.25
2022-10-17T05:00:43.787Z,18.10
2022-10-17T05:03:10.181Z,17.90
2022-10-17T05:05:40.783Z,16.08
2022-10-17T05:08:08.479Z,15.57
2022-10-17T05:10:39.282Z,14.05
2022-10-17T05:13:06.079Z,15.48
2022-10-17T05:15:32.745Z,18.13
2022-10-17T05:17:59.102Z,20.02
2022-10-17T05:20:26.174Z,14.00
2022-10-17T05:22:52.548Z,16.50
2022-10-17T05:25:19.320Z,19.63
2022-10-17T05:27:45.836Z,16.13
2022-10-17T05:30:12.183Z,12.77
2022-10-17T05:32:38.701Z,16.75
2022-10-17T05:35:05.584Z,16.77
2022-10-17T05:37:32.109Z,15.48
2022-10-17T05:39:58.413Z,18.63
2022-10-17T05:42:24.875Z,18.42
2022-10-17T05:44:51.232Z,14.07
2022-10-17T05:47:17.788Z,21.42
2022-10-17T05:49:48.662Z,16.58
2022-10-17T05:52:18.497Z,15.10
2022-10-17T05:54:44.830Z,15.60
2022-10-17T05:57:11.653Z,15.30
2022-10-17T05:59:37.965Z,17.25
2022-10-17T06:02:04.397Z,16.23
2022-10-17T06:04:30.745Z,16.15
2022-10-17T06:06:57.162Z,18.73
2022-10-17T06:09:24.257Z,17.67
2022-10-17T06:11:50.583Z,13.98
2022-10-17T06:14:16.957Z,16.95
2022-10-17T06:16:43.288Z,17.92
2022-10-17T06:19:09.604Z,18.38
2022-10-17T06:21:35.914Z,14.80
2022-10-17T06:24:02.246Z,14.57
2022-10-17T06:26:28.543Z,14.73
2022-10-17T06:28:55.578Z,16.50
2022-10-17T06:31:21.922Z,18.95
2022-10-17T06:33:48.234Z,13.73
2022-10-17T06:36:15.151Z,15.35
2022-10-17T06:38:41.786Z,14.88
2022-10-17T06:41:13.873Z,14.10
2022-10-17T06:43:42.024Z,11.75
2022-10-17T06:46:08.763Z,10.75
2022-10-17T06:48:35.349Z,10.35
2022-10-17T06:51:02.887Z,10.35
2022-10-17T06:53:30.815Z,15.93
2022-10-17T06:55:57.384Z,10.18
2022-10-17T06:58:23.939Z,10.65
2022-10-17T07:00:50.431Z,11.50
2022-10-17T07:03:16.862Z,12.05
2022-10-17T07:05:43.183Z,9.82
2022-10-17T07:08:09.472Z,14.85
2022-10-17T07:10:35.773Z,9.90
2022-10-17T07:13:02.083Z,9.10
2022-10-17T07:15:28.383Z,10.45
2022-10-17T07:17:54.687Z,9.18
2022-10-17T07:20:21.059Z,14.32
2022-10-17T07:22:47.344Z,8.90
2022-10-17T07:25:13.674Z,7.38
2022-10-17T07:27:40.012Z,7.53
2022-10-17T07:30:07.134Z,11.00
2022-10-17T07:32:33.525Z,8.70
2022-10-17T07:34:59.806Z,7.10
2022-10-17T07:37:26.180Z,7.30
2022-10-17T07:39:52.551Z,6.80
2022-10-17T07:42:18.855Z,7.03
2022-10-17T07:44:45.157Z,7.32
2022-10-17T07:47:11.441Z,5.63
2022-10-17T07:49:37.749Z,6.47
2022-10-17T07:52:04.089Z,6.97
2022-10-17T07:54:30.428Z,11.15
2022-10-17T07:56:56.738Z,8.18
2022-10-17T07:59:23.061Z,6.72
2022-10-17T08:01:49.366Z,8.10
2022-10-17T08:04:15.668Z,6.20
2022-10-17T08:06:42.011Z,9.73
2022-10-17T08:09:08.309Z,15.23
2022-10-17T08:11:34.627Z,5.85
2022-10-17T08:14:00.909Z,7.78
2022-10-17T08:16:27.223Z,8.02
2022-10-17T08:18:53.572Z,9.75
2022-10-17T08:21:19.971Z,9.05
2022-10-17T08:23:46.423Z,9.88
2022-10-17T08:26:13.461Z,5.97
2022-10-17T08:28:40.551Z,12.52
2022-10-17T08:31:10.337Z,9.20
2022-10-17T08:33:36.790Z,5.78
2022-10-17T08:36:05.270Z,8.50
2022-10-17T08:38:35.415Z,4.75
2022-10-17T08:41:11.859Z,6.93
2022-10-17T08:43:57.174Z,6.43
2022-10-17T08:46:31.054Z,10.10
2022-10-17T08:49:01.071Z,7.87
2022-10-17T08:51:33.693Z,7.55
2022-10-17T08:54:20.900Z,9.00
2022-10-17T08:56:51.019Z,8.13
2022-10-17T08:59:23.273Z,8.07
2022-10-17T09:02:43.455Z,7.57
2022-10-17T09:05:45.131Z,6.90
2022-10-17T09:08:35.747Z,6.47
2022-10-17T09:11:15.714Z,7.25
2022-10-17T09:13:54.247Z,13.45
2022-10-17T09:16:58.372Z,5.40
2022-10-17T09:19:35.299Z,7.18
2022-10-17T09:22:06.331Z,9.65
2022-10-17T09:24:43.110Z,6.53
2022-10-17T09:27:22.986Z,6.65
2022-10-17T09:29:54.369Z,5.00
2022-10-17T09:32:25.474Z,5.38
2022-10-17T09:34:53.552Z,5.97
2022-10-17T09:37:25.234Z,5.45
2022-10-17T09:39:51.667Z,7.40
2022-10-17T09:42:21.084Z,12.48
2022-10-17T09:44:54.591Z,8.55
2022-10-17T09:47:26.870Z,7.10
2022-10-17T09:49:53.463Z,9.93
2022-10-17T09:52:36.284Z,8.35
2022-10-17T09:55:07.186Z,11.88
2022-10-17T09:57:54.284Z,8.70
2022-10-17T10:00:26.976Z,9.23
2022-10-17T10:03:30.183Z,5.53
2022-10-17T10:06:01.187Z,6.55
2022-10-17T10:08:34.834Z,12.20
2022-10-17T10:11:05.574Z,9.15
2022-10-17T10:13:34.245Z,10.25
2022-10-17T10:16:30.610Z,5.45
2022-10-17T10:18:57.689Z,4.55
2022-10-17T10:21:26.871Z,5.82
2022-10-17T10:23:59.235Z,6.47
2022-10-17T10:26:35.042Z,8.30
2022-10-17T10:29:36.529Z,5.70
2022-10-17T10:32:11.761Z,5.97
2022-10-17T10:34:47.772Z,5.68
2022-10-17T10:37:27.168Z,6.40
2022-10-17T10:39:58.129Z,12.07
2022-10-17T10:42:28.847Z,8.23
2022-10-17T10:44:59.786Z,7.97
2022-10-17T10:47:31.148Z,3.78
2022-10-17T10:50:31.657Z,4.68
2022-10-17T10:53:21.247Z,8.18
2022-10-17T10:55:55.284Z,6.10
2022-10-17T10:58:49.225Z,4.50
2022-10-17T11:01:20.229Z,5.00
2022-10-17T11:04:04.916Z,7.88
2022-10-17T11:06:36.513Z,8.63
2022-10-17T11:09:33.112Z,8.27
2022-10-17T11:12:11.909Z,7.25
2022-10-17T11:14:40.829Z,4.40
2022-10-17T11:17:30.547Z,5.00
2022-10-17T11:20:09.285Z,6.55
2022-10-17T11:23:04.807Z,6.90
2022-10-17T11:25:37.303Z,6.55
2022-10-17T11:28:11.099Z,5.88
2022-10-17T11:31:07.085Z,6.13
2022-10-17T11:33:59.613Z,5.50
2022-10-17T11:36:30.980Z,5.43
2022-10-17T11:39:06.043Z,4.82
2022-10-17T11:41:36.757Z,6.65
2022-10-17T11:44:18.541Z,6.30
2022-10-17T11:46:50.551Z,5.55
2022-10-17T11:49:22.187Z,9.90
2022-10-17T11:52:02.411Z,6.05
2022-10-17T11:54:38.034Z,17.60
2022-10-17T11:57:32.016Z,30.63
2022-10-17T12:00:07.443Z,15.88
2022-10-17T12:02:33.929Z,34.35
2022-10-17T12:05:18.619Z,41.70
2022-10-17T12:08:08.222Z,9.30
2022-10-17T12:10:46.856Z,7.60
2022-10-17T12:13:28.498Z,24.77
2022-10-17T12:16:19.135Z,6.70
2022-10-17T12:19:19.243Z,5.43
2022-10-17T12:21:57.570Z,4.60
2022-10-17T12:24:36.491Z,5.82
2022-10-17T12:27:22.948Z,28.17
2022-10-17T12:29:50.259Z,18.35
2022-10-17T12:32:16.846Z,17.88
2022-10-17T12:34:54.523Z,11.57
2022-10-17T12:37:42.551Z,7.43
2022-10-17T12:40:36.875Z,11.05
2022-10-17T12:43:15.247Z,7.28
2022-10-17T12:45:48.567Z,7.85
2022-10-17T12:48:33.811Z,7.00
2022-10-17T12:54:10.102Z,13.45
2022-10-17T12:56:40.272Z,8.23
2022-10-17T12:59:16.514Z,5.60
2022-10-17T13:01:46.562Z,5.68
2022-10-17T13:04:13.160Z,5.18
2022-10-17T13:06:46.450Z,4.60
2022-10-17T13:09:22.627Z,12.68
2022-10-17T13:11:50.034Z,10.65
2022-10-17T13:14:19.926Z,5.35
2022-10-17T13:17:04.862Z,8.82
2022-10-17T13:19:43.427Z,13.73
2022-10-17T13:22:28.673Z,10.43
2022-10-17T13:25:08.256Z,6.72
2022-10-17T13:27:36.859Z,8.30
2022-10-17T13:30:32.000Z,8.75
2022-10-17T13:32:59.393Z,9.60
2022-10-17T13:35:58.892Z,9.85
2022-10-17T13:38:30.142Z,6.38
2022-10-17T13:41:02.005Z,7.47
2022-10-17T13:43:37.712Z,7.70
2022-10-17T13:46:19.344Z,5.82
2022-10-17T13:48:51.602Z,13.95
2022-10-17T13:51:18.052Z,6.40
2022-10-17T13:53:44.410Z,11.13
2022-10-17T13:56:33.692Z,7.30
2022-10-17T13:59:09.626Z,7.15
2022-10-17T14:01:38.155Z,8.73
2022-10-17T14:04:19.557Z,8.95
2022-10-17T14:06:49.673Z,7.57
2022-10-17T14:09:23.648Z,9.50
2022-10-17T14:12:09.740Z,8.07
2022-10-17T14:14:58.341Z,7.88
2022-10-17T14:17:29.843Z,6.60
2022-10-17T14:20:16.137Z,5.90
2022-10-17T14:22:50.434Z,9.30
2022-10-17T14:25:39.187Z,9.85
2022-10-17T14:28:11.462Z,9.27
2022-10-17T14:33:30.084Z,6.95
2022-10-17T14:35:59.244Z,7.03
2022-10-17T14:38:26.884Z,7.13
2022-10-17T14:41:41.795Z,5.80
2022-10-17T14:43:58.029Z,5.63
2022-10-17T14:46:25.371Z,7.30
2022-10-17T14:49:02.344Z,8.30
2022-10-17T14:51:32.553Z,5.72
2022-10-17T14:54:27.083Z,6.60
2022-10-17T14:56:54.059Z,7.10
2022-10-17T14:59:30.244Z,6.78
2022-10-17T15:02:06.775Z,5.82
2022-10-17T15:04:33.104Z,7.20
2022-10-17T15:06:59.414Z,4.93
2022-10-17T15:09:25.936Z,6.72
2022-10-17T15:11:52.582Z,6.07
2022-10-17T15:14:18.899Z,10.30
2022-10-17T15:16:45.204Z,7.00
2022-10-17T15:19:13.540Z,8.60
2022-10-17T15:21:44.694Z,5.82
2022-10-17T15:24:13.396Z,4.57
2022-10-17T15:26:39.753Z,5.85
2022-10-17T15:29:06.476Z,5.30
2022-10-17T15:31:33.206Z,4.38
2022-10-17T15:33:59.540Z,4.63
2022-10-17T15:36:28.419Z,5.13
2022-10-17T15:38:57.254Z,4.63
2022-10-17T15:41:26.323Z,10.23
2022-10-17T15:43:52.907Z,8.00
2022-10-17T15:46:27.905Z,6.38
2022-10-17T15:48:55.716Z,6.43
2022-10-17T15:51:23.255Z,7.57
2022-10-17T15:53:49.607Z,6.13
2022-10-17T15:56:22.887Z,95.07
2022-10-17T15:58:49.573Z,26.38
2022-10-17T16:01:22.030Z,19.80
2022-10-17T16:03:48.437Z,21.67
2022-10-17T16:06:14.885Z,10.88
2022-10-17T16:08:41.268Z,19.55
2022-10-17T16:11:15.105Z,12.13
2022-10-17T16:13:41.511Z,80.50
2022-10-17T16:16:11.912Z,10.48
2022-10-17T16:18:38.263Z,23.45
2022-10-17T16:21:04.751Z,27.05
2022-10-17T16:23:31.054Z,15.68
2022-10-17T16:25:57.364Z,12.48
2022-10-17T16:28:23.710Z,23.38
2022-10-17T16:30:50.107Z,19.17
2022-10-17T16:33:16.401Z,8.45
2022-10-17T16:35:42.802Z,9.27
2022-10-17T16:38:09.102Z,10.85
2022-10-17T16:40:38.532Z,9.88
2022-10-17T16:43:04.847Z,10.35
2022-10-17T16:45:31.364Z,15.07
2022-10-17T16:47:57.694Z,8.60
2022-10-17T16:50:24.152Z,11.02
2022-10-17T16:52:50.629Z,9.40
2022-10-17T16:55:17.179Z,11.52
2022-10-17T17:00:11.839Z,13.07
2022-10-17T17:02:38.548Z,11.52
2022-10-17T17:05:05.349Z,19.17
2022-10-17T17:07:32.121Z,12.07
2022-10-17T17:09:58.559Z,13.13
2022-10-17T17:12:24.961Z,15.60
2022-10-17T17:14:51.309Z,9.30
2022-10-17T17:17:30.276Z,12.65
2022-10-17T17:20:04.232Z,13.88
2022-10-17T17:22:30.600Z,10.50
2022-10-17T17:24:56.927Z,17.58
2022-10-17T17:27:23.234Z,12.68
2022-10-17T17:29:49.539Z,12.68
2022-10-17T17:32:15.839Z,11.75
2022-10-17T17:34:42.164Z,11.65
2022-10-17T17:37:08.468Z,20.83
2022-10-17T17:39:34.934Z,13.57
2022-10-17T17:42:01.273Z,12.73
2022-10-17T17:44:27.567Z,12.25
2022-10-17T17:46:53.866Z,13.45
2022-10-17T17:49:20.226Z,11.30
2022-10-17T17:51:46.655Z,13.30
2022-10-17T17:54:13.291Z,16.17
2022-10-17T17:56:40.181Z,13.10
2022-10-17T17:59:07.022Z,12.40
2022-10-17T18:01:34.933Z,12.05
2022-10-17T18:04:01.291Z,12.77
2022-10-17T18:06:28.098Z,17.58
2022-10-17T18:08:57.267Z,10.77
2022-10-17T18:11:24.189Z,11.65
2022-10-17T18:13:58.906Z,12.07
2022-10-17T18:16:26.147Z,14.98
2022-10-17T18:18:52.847Z,14.27
2022-10-17T18:21:19.198Z,14.25
2022-10-17T18:23:47.625Z,14.30
2022-10-17T18:26:14.375Z,12.40
2022-10-17T18:31:19.628Z,12.57
2022-10-17T18:33:46.358Z,12.52
2022-10-17T18:36:14.705Z,9.75
2022-10-17T18:38:41.848Z,11.82
2022-10-17T18:41:13.644Z,11.45
2022-10-17T18:43:41.858Z,12.68
2022-10-17T18:46:13.877Z,12.15
2022-10-17T18:48:43.247Z,10.02
2022-10-17T18:51:09.930Z,9.90
2022-10-17T18:53:40.508Z,11.18
2022-10-17T18:56:07.639Z,11.20
2022-10-17T18:58:34.019Z,10.68
2022-10-17T19:01:05.475Z,11.73
2022-10-17T19:03:32.398Z,15.13
2022-10-17T19:06:07.588Z,12.73
2022-10-17T19:08:35.064Z,12.32
2022-10-17T19:11:12.491Z,11.95
2022-10-17T19:13:39.616Z,13.45
2022-10-17T19:16:11.321Z,15.68
2022-10-17T19:18:38.106Z,13.75
2022-10-17T19:21:06.847Z,15.38
2022-10-17T19:23:33.721Z,13.25
2022-10-17T19:26:05.298Z,14.07
2022-10-17T19:28:32.644Z,13.48
2022-10-17T19:30:59.015Z,15.07
2022-10-17T19:33:25.624Z,14.18
2022-10-17T19:35:56.487Z,12.48
2022-10-17T19:38:22.853Z,16.02
2022-10-17T19:40:49.439Z,13.88
2022-10-17T19:43:15.953Z,17.25
2022-10-17T19:45:42.426Z,12.98
2022-10-17T19:48:08.912Z,20.70
2022-10-17T19:50:36.728Z,16.35
2022-10-17T19:53:05.562Z,13.93
2022-10-17T19:55:32.881Z,17.10
2022-10-17T19:57:59.202Z,17.25
2022-10-17T20:00:25.509Z,14.20
2022-10-17T20:02:51.839Z,18.70
2022-10-17T20:05:19.217Z,15.02
2022-10-17T20:07:46.046Z,17.38
2022-10-17T20:10:12.382Z,15.20
2022-10-17T20:12:38.715Z,16.70
2022-10-17T20:15:05.484Z,19.45
2022-10-17T20:17:31.963Z,14.68
2022-10-17T20:19:58.309Z,24.88
2022-10-17T20:22:24.731Z,16.10
2022-10-17T20:24:51.076Z,18.33
2022-10-17T20:27:17.412Z,19.17
2022-10-17T20:29:43.718Z,17.98
2022-10-17T20:32:10.059Z,16.80
2022-10-17T20:34:36.834Z,16.05
2022-10-17T20:37:03.369Z,15.18
2022-10-17T20:39:30.296Z,17.98
2022-10-17T20:41:56.682Z,14.77
2022-10-17T20:44:23.006Z,17.65
2022-10-17T20:47:01.200Z,18.77
2022-10-17T20:49:29.825Z,14.82
2022-10-17T20:51:56.653Z,16.60
2022-10-17T20:54:22.985Z,17.65
2022-10-17T20:56:49.590Z,15.30
2022-10-17T20:59:17.201Z,13.90
2022-10-17T21:01:44.722Z,15.00
2022-10-17T21:04:40.663Z,14.88
2022-10-17T21:06:58.604Z,18.38
2022-10-17T21:09:25.147Z,16.67
2022-10-17T21:11:51.783Z,14.55
2022-10-17T21:14:18.488Z,14.82
2022-10-17T21:16:44.839Z,16.42
2022-10-17T21:19:12.627Z,17.35
2022-10-17T21:21:41.675Z,21.17
2022-10-17T21:24:10.447Z,21.73
2022-10-17T21:26:37.523Z,22.77
2022-10-17T21:29:04.971Z,20.13
2022-10-17T21:31:35.852Z,20.55
2022-10-17T21:34:08.245Z,24.20
2022-10-17T21:36:34.790Z,20.88
2022-10-17T21:39:01.269Z,23.30
2022-10-17T21:41:29.152Z,23.45
2022-10-17T21:44:03.871Z,22.73
2022-10-17T21:46:30.495Z,21.88
2022-10-17T21:48:59.085Z,21.80
2022-10-17T21:51:26.419Z,26.75
2022-10-17T21:53:54.354Z,22.20
2022-10-17T21:56:23.271Z,22.52
2022-10-17T21:58:51.120Z,23.73
2022-10-17T22:01:20.312Z,21.90
2022-10-17T22:03:50.727Z,24.30
2022-10-17T22:09:09.954Z,25.63
2022-10-17T22:11:36.640Z,23.92
2022-10-17T22:14:05.875Z,25.08
2022-10-17T22:16:32.907Z,24.15
2022-10-17T22:19:04.812Z,23.05
2022-10-17T22:21:33.972Z,29.77
2022-10-17T22:24:03.340Z,32.95
2022-10-17T22:26:31.188Z,32.75
2022-10-17T22:28:58.009Z,29.55
2022-10-17T22:31:24.657Z,33.58
2022-10-17T22:33:51.290Z,30.92
2022-10-17T22:36:17.971Z,33.17
2022-10-17T22:38:44.475Z,32.28
2022-10-17T22:41:11.040Z,34.28
2022-10-17T22:43:37.450Z,32.33
2022-10-17T22:46:06.004Z,25.88
2022-10-17T22:48:32.668Z,30.05
2022-10-17T22:51:00.210Z,35.72
2022-10-17T22:53:27.070Z,35.63
2022-10-17T22:55:55.343Z,28.63
2022-10-17T22:58:22.193Z,27.88
2022-10-17T23:00:49.808Z,41.55
2022-10-17T23:03:16.919Z,33.53
2022-10-17T23:05:43.867Z,34.72
2022-10-17T23:08:11.331Z,36.03
2022-10-17T23:10:37.946Z,30.38
2022-10-17T23:13:05.014Z,35.70
2022-10-17T23:15:32.726Z,29.08
2022-10-17T23:18:00.273Z,31.70
2022-10-17T23:20:27.440Z,35.58
2022-10-17T23:22:53.873Z,40.53
2022-10-17T23:25:20.273Z,36.95
2022-10-17T23:27:46.613Z,33.03
2022-10-17T23:30:13.412Z,36.30
2022-10-17T23:32:40.539Z,34.45
2022-10-17T23:35:08.195Z,41.50
2022-10-17T23:37:35.259Z,32.40
2022-10-17T23:40:01.952Z,29.15
2022-10-17T23:42:28.448Z,31.05
2022-10-17T23:44:54.940Z,33.95
2022-10-17T23:47:21.450Z,34.65
2022-10-17T23:52:15.674Z,33.95
2022-10-17T23:57:13.578Z,36.38
2022-10-17T23:59:39.898Z,35.88
